sensor_id;sensor_type;location;lat;lon;timestamp;temperature;humidity
35565;DHT22;21668;44.784;10.336;2022-08-19T00:08:02;21.10;99.90
35565;DHT22;21668;44.784;10.336;2022-08-19T00:39:32;20.80;99.90
35565;DHT22;21668;44.784;10.336;2022-08-19T01:01:21;20.60;99.90
35565;DHT22;21668;44.784;10.336;2022-08-19T01:48:36;20.60;99.90
35565;DHT22;21668;44.784;10.336;2022-08-19T02:05:22;20.50;99.90
35565;DHT22;21668;44.784;10.336;2022-08-19T02:16:40;20.50;99.90
35565;DHT22;21668;44.784;10.336;2022-08-19T02:19:45;20.40;99.90
35565;DHT22;21668;44.784;10.336;2022-08-19T02:22:48;20.30;99.90
35565;DHT22;21668;44.784;10.336;2022-08-19T02:25:52;20.20;99.90
35565;DHT22;21668;44.784;10.336;2022-08-19T02:28:56;20.20;99.90
35565;DHT22;21668;44.784;10.336;2022-08-19T02:32:00;20.10;99.90
35565;DHT22;21668;44.784;10.336;2022-08-19T02:35:04;20.10;99.90
35565;DHT22;21668;44.784;10.336;2022-08-19T02:38:08;20.20;99.90
35565;DHT22;21668;44.784;10.336;2022-08-19T02:46:38;20.00;99.90
35565;DHT22;21668;44.784;10.336;2022-08-19T02:49:46;19.90;99.90
35565;DHT22;21668;44.784;10.336;2022-08-19T02:53:14;19.90;99.90
35565;DHT22;21668;44.784;10.336;2022-08-19T02:59:59;19.90;99.90
35565;DHT22;21668;44.784;10.336;2022-08-19T03:15:02;19.60;99.90
35565;DHT22;21668;44.784;10.336;2022-08-19T03:18:10;19.60;99.90
35565;DHT22;21668;44.784;10.336;2022-08-19T03:21:20;19.60;99.90
35565;DHT22;21668;44.784;10.336;2022-08-19T03:24:30;19.60;99.90
35565;DHT22;21668;44.784;10.336;2022-08-19T03:36:28;19.30;99.90
35565;DHT22;21668;44.784;10.336;2022-08-19T04:04:16;18.50;99.90
35565;DHT22;21668;44.784;10.336;2022-08-19T04:07:38;18.40;99.90
35565;DHT22;21668;44.784;10.336;2022-08-19T04:17:47;18.50;99.90
35565;DHT22;21668;44.784;10.336;2022-08-19T04:20:51;18.60;99.90
35565;DHT22;21668;44.784;10.336;2022-08-19T04:24:02;18.60;99.90
35565;DHT22;21668;44.784;10.336;2022-08-19T04:27:06;18.60;99.90
35565;DHT22;21668;44.784;10.336;2022-08-19T04:30:10;18.50;99.90
35565;DHT22;21668;44.784;10.336;2022-08-19T04:33:15;18.50;99.90
35565;DHT22;21668;44.784;10.336;2022-08-19T04:36:21;18.50;99.90
35565;DHT22;21668;44.784;10.336;2022-08-19T04:39:26;18.40;99.90
35565;DHT22;21668;44.784;10.336;2022-08-19T04:42:50;18.40;99.90
35565;DHT22;21668;44.784;10.336;2022-08-19T04:45:58;18.50;99.90
35565;DHT22;21668;44.784;10.336;2022-08-19T04:49:03;18.50;99.90
35565;DHT22;21668;44.784;10.336;2022-08-19T04:52:08;18.60;99.90
35565;DHT22;21668;44.784;10.336;2022-08-19T04:55:11;18.50;99.90
35565;DHT22;21668;44.784;10.336;2022-08-19T04:58:16;18.50;99.90
35565;DHT22;21668;44.784;10.336;2022-08-19T05:01:22;18.50;99.90
35565;DHT22;21668;44.784;10.336;2022-08-19T05:04:26;18.50;99.90
35565;DHT22;21668;44.784;10.336;2022-08-19T05:07:32;18.50;99.90
35565;DHT22;21668;44.784;10.336;2022-08-19T05:10:36;18.50;99.90
35565;DHT22;21668;44.784;10.336;2022-08-19T05:17:08;18.40;99.90
35565;DHT22;21668;44.784;10.336;2022-08-19T05:20:12;18.40;99.90
35565;DHT22;21668;44.784;10.336;2022-08-19T05:23:40;18.30;99.90
35565;DHT22;21668;44.784;10.336;2022-08-19T05:26:45;18.20;99.90
35565;DHT22;21668;44.784;10.336;2022-08-19T05:29:50;18.10;99.90
35565;DHT22;21668;44.784;10.336;2022-08-19T05:33:02;18.10;99.90
35565;DHT22;21668;44.784;10.336;2022-08-19T05:36:06;18.10;99.90
35565;DHT22;21668;44.784;10.336;2022-08-19T05:39:25;18.20;99.90
35565;DHT22;21668;44.784;10.336;2022-08-19T05:47:04;18.30;99.90
35565;DHT22;21668;44.784;10.336;2022-08-19T05:54:07;18.20;99.90
35565;DHT22;21668;44.784;10.336;2022-08-19T05:57:14;20.40;99.90
35565;DHT22;21668;44.784;10.336;2022-08-19T06:01:25;18.10;99.90
35565;DHT22;21668;44.784;10.336;2022-08-19T06:13:09;17.90;99.90
35565;DHT22;21668;44.784;10.336;2022-08-19T06:16:13;18.00;99.90
35565;DHT22;21668;44.784;10.336;2022-08-19T06:40:01;17.90;99.90
35565;DHT22;21668;44.784;10.336;2022-08-19T07:03:19;18.10;99.90
35565;DHT22;21668;44.784;10.336;2022-08-19T07:07:16;18.10;99.90
35565;DHT22;21668;44.784;10.336;2022-08-19T07:10:29;18.30;99.90
35565;DHT22;21668;44.784;10.336;2022-08-19T07:13:58;18.30;99.90
35565;DHT22;21668;44.784;10.336;2022-08-19T07:25:03;18.80;99.90
35565;DHT22;21668;44.784;10.336;2022-08-19T07:32:50;19.20;99.90
35565;DHT22;21668;44.784;10.336;2022-08-19T07:35:57;19.90;99.90
35565;DHT22;21668;44.784;10.336;2022-08-19T07:43:33;20.70;99.90
35565;DHT22;21668;44.784;10.336;2022-08-19T07:46:52;20.70;99.90
35565;DHT22;21668;44.784;10.336;2022-08-19T07:53:53;20.70;99.90
35565;DHT22;21668;44.784;10.336;2022-08-19T08:30:17;20.50;99.90
35565;DHT22;21668;44.784;10.336;2022-08-19T08:37:04;21.10;99.90
35565;DHT22;21668;44.784;10.336;2022-08-19T08:50:34;22.40;99.90
35565;DHT22;21668;44.784;10.336;2022-08-19T08:58:45;22.40;99.90
35565;DHT22;21668;44.784;10.336;2022-08-19T09:01:51;22.40;99.90
35565;DHT22;21668;44.784;10.336;2022-08-19T09:04:55;22.70;99.90
35565;DHT22;21668;44.784;10.336;2022-08-19T09:08:00;23.10;99.90
35565;DHT22;21668;44.784;10.336;2022-08-19T09:11:07;23.10;99.90
35565;DHT22;21668;44.784;10.336;2022-08-19T09:20:56;23.40;99.90
35565;DHT22;21668;44.784;10.336;2022-08-19T09:24:00;23.40;99.90
35565;DHT22;21668;44.784;10.336;2022-08-19T09:27:06;23.90;99.90
35565;DHT22;21668;44.784;10.336;2022-08-19T09:30:23;24.00;99.90
35565;DHT22;21668;44.784;10.336;2022-08-19T09:33:31;24.00;99.90
35565;DHT22;21668;44.784;10.336;2022-08-19T09:36:39;24.30;99.90
35565;DHT22;21668;44.784;10.336;2022-08-19T09:39:55;24.40;99.90
35565;DHT22;21668;44.784;10.336;2022-08-19T09:43:03;24.80;99.90
35565;DHT22;21668;44.784;10.336;2022-08-19T09:46:08;25.30;99.90
35565;DHT22;21668;44.784;10.336;2022-08-19T09:49:16;25.40;99.90
35565;DHT22;21668;44.784;10.336;2022-08-19T09:52:21;25.50;99.90
35565;DHT22;21668;44.784;10.336;2022-08-19T09:55:27;25.70;99.90
35565;DHT22;21668;44.784;10.336;2022-08-19T09:58:32;25.90;99.90
35565;DHT22;21668;44.784;10.336;2022-08-19T10:01:43;25.80;99.90
35565;DHT22;21668;44.784;10.336;2022-08-19T10:04:46;25.80;99.90
35565;DHT22;21668;44.784;10.336;2022-08-19T10:08:09;25.60;99.90
35565;DHT22;21668;44.784;10.336;2022-08-19T10:11:15;25.80;99.90
35565;DHT22;21668;44.784;10.336;2022-08-19T10:14:20;25.70;99.90
35565;DHT22;21668;44.784;10.336;2022-08-19T10:17:30;25.60;99.90
35565;DHT22;21668;44.784;10.336;2022-08-19T10:20:36;25.70;99.90
35565;DHT22;21668;44.784;10.336;2022-08-19T10:23:42;25.80;99.90
35565;DHT22;21668;44.784;10.336;2022-08-19T10:26:49;25.70;99.90
35565;DHT22;21668;44.784;10.336;2022-08-19T10:29:53;25.60;99.90
35565;DHT22;21668;44.784;10.336;2022-08-19T10:32:57;25.50;99.90
35565;DHT22;21668;44.784;10.336;2022-08-19T10:36:02;25.40;99.90
35565;DHT22;21668;44.784;10.336;2022-08-19T10:39:07;25.30;99.90
35565;DHT22;21668;44.784;10.336;2022-08-19T10:42:12;25.20;99.90
35565;DHT22;21668;44.784;10.336;2022-08-19T10:45:17;25.10;99.90
35565;DHT22;21668;44.784;10.336;2022-08-19T10:48:20;25.30;99.90
35565;DHT22;21668;44.784;10.336;2022-08-19T10:51:24;25.50;99.90
35565;DHT22;21668;44.784;10.336;2022-08-19T10:54:46;25.90;99.90
35565;DHT22;21668;44.784;10.336;2022-08-19T10:58:10;25.90;99.90
35565;DHT22;21668;44.784;10.336;2022-08-19T11:01:14;25.60;99.90
35565;DHT22;21668;44.784;10.336;2022-08-19T11:04:18;25.40;99.90
35565;DHT22;21668;44.784;10.336;2022-08-19T11:07:22;25.30;99.90
35565;DHT22;21668;44.784;10.336;2022-08-19T11:10:28;25.00;99.90
35565;DHT22;21668;44.784;10.336;2022-08-19T11:13:34;25.10;99.90
35565;DHT22;21668;44.784;10.336;2022-08-19T11:16:39;25.10;99.90
35565;DHT22;21668;44.784;10.336;2022-08-19T11:19:43;25.30;99.90
35565;DHT22;21668;44.784;10.336;2022-08-19T11:22:47;25.50;99.90
35565;DHT22;21668;44.784;10.336;2022-08-19T11:25:52;25.30;99.90
35565;DHT22;21668;44.784;10.336;2022-08-19T11:28:57;25.40;99.90
35565;DHT22;21668;44.784;10.336;2022-08-19T11:32:06;25.40;99.90
35565;DHT22;21668;44.784;10.336;2022-08-19T11:35:12;25.60;99.90
35565;DHT22;21668;44.784;10.336;2022-08-19T11:38:19;25.90;99.90
35565;DHT22;21668;44.784;10.336;2022-08-19T11:41:23;25.90;99.90
35565;DHT22;21668;44.784;10.336;2022-08-19T11:44:28;26.00;99.90
35565;DHT22;21668;44.784;10.336;2022-08-19T11:47:33;26.10;99.90
35565;DHT22;21668;44.784;10.336;2022-08-19T11:50:39;26.30;99.90
35565;DHT22;21668;44.784;10.336;2022-08-19T11:53:48;26.60;99.90
35565;DHT22;21668;44.784;10.336;2022-08-19T12:03:59;27.40;99.90
35565;DHT22;21668;44.784;10.336;2022-08-19T12:07:03;27.40;99.90
35565;DHT22;21668;44.784;10.336;2022-08-19T12:14:54;27.60;99.90
35565;DHT22;21668;44.784;10.336;2022-08-19T12:18:02;27.30;99.90
35565;DHT22;21668;44.784;10.336;2022-08-19T12:24:39;27.40;99.90
35565;DHT22;21668;44.784;10.336;2022-08-19T12:31:15;27.60;99.90
35565;DHT22;21668;44.784;10.336;2022-08-19T12:34:20;28.00;99.90
35565;DHT22;21668;44.784;10.336;2022-08-19T12:48:39;28.40;99.90
35565;DHT22;21668;44.784;10.336;2022-08-19T12:51:46;28.30;99.90
35565;DHT22;21668;44.784;10.336;2022-08-19T12:54:54;28.30;99.90
35565;DHT22;21668;44.784;10.336;2022-08-19T13:01:36;28.40;99.90
35565;DHT22;21668;44.784;10.336;2022-08-19T13:08:30;27.70;99.90
35565;DHT22;21668;44.784;10.336;2022-08-19T13:11:34;27.60;99.90
35565;DHT22;21668;44.784;10.336;2022-08-19T13:14:48;27.70;99.90
35565;DHT22;21668;44.784;10.336;2022-08-19T13:17:54;28.10;99.90
35565;DHT22;21668;44.784;10.336;2022-08-19T13:21:09;28.10;99.90
35565;DHT22;21668;44.784;10.336;2022-08-19T13:28:10;28.20;99.90
35565;DHT22;21668;44.784;10.336;2022-08-19T13:31:15;28.30;99.90
35565;DHT22;21668;44.784;10.336;2022-08-19T13:34:37;28.30;99.90
35565;DHT22;21668;44.784;10.336;2022-08-19T13:37:41;28.30;99.90
35565;DHT22;21668;44.784;10.336;2022-08-19T13:40:45;28.10;99.30
35565;DHT22;21668;44.784;10.336;2022-08-19T13:43:49;27.90;99.90
35565;DHT22;21668;44.784;10.336;2022-08-19T13:46:54;27.70;99.90
35565;DHT22;21668;44.784;10.336;2022-08-19T13:49:58;27.90;99.90
35565;DHT22;21668;44.784;10.336;2022-08-19T13:53:02;27.90;99.70
35565;DHT22;21668;44.784;10.336;2022-08-19T13:56:11;27.80;99.90
35565;DHT22;21668;44.784;10.336;2022-08-19T13:59:15;27.70;99.80
35565;DHT22;21668;44.784;10.336;2022-08-19T14:02:21;26.90;99.40
35565;DHT22;21668;44.784;10.336;2022-08-19T14:05:25;27.50;99.90
35565;DHT22;21668;44.784;10.336;2022-08-19T14:08:29;27.40;99.90
35565;DHT22;21668;44.784;10.336;2022-08-19T14:11:35;27.20;99.90
35565;DHT22;21668;44.784;10.336;2022-08-19T14:14:40;27.10;99.90
35565;DHT22;21668;44.784;10.336;2022-08-19T14:17:45;27.10;99.90
35565;DHT22;21668;44.784;10.336;2022-08-19T14:20:52;27.30;99.90
35565;DHT22;21668;44.784;10.336;2022-08-19T14:23:55;27.30;99.90
35565;DHT22;21668;44.784;10.336;2022-08-19T14:26:59;27.40;99.90
35565;DHT22;21668;44.784;10.336;2022-08-19T14:33:41;27.40;99.90
35565;DHT22;21668;44.784;10.336;2022-08-19T14:36:46;27.30;99.90
35565;DHT22;21668;44.784;10.336;2022-08-19T14:55:31;27.20;99.90
35565;DHT22;21668;44.784;10.336;2022-08-19T14:58:51;27.10;99.90
35565;DHT22;21668;44.784;10.336;2022-08-19T15:05:28;27.10;99.90
35565;DHT22;21668;44.784;10.336;2022-08-19T15:08:34;27.10;99.90
35565;DHT22;21668;44.784;10.336;2022-08-19T15:11:59;27.10;99.90
35565;DHT22;21668;44.784;10.336;2022-08-19T15:15:05;27.10;99.90
35565;DHT22;21668;44.784;10.336;2022-08-19T15:21:39;26.90;99.90
35565;DHT22;21668;44.784;10.336;2022-08-19T15:24:43;26.90;99.90
35565;DHT22;21668;44.784;10.336;2022-08-19T15:35:28;26.70;99.90
35565;DHT22;21668;44.784;10.336;2022-08-19T15:38:33;26.50;99.90
35565;DHT22;21668;44.784;10.336;2022-08-19T15:42:22;26.40;99.90
35565;DHT22;21668;44.784;10.336;2022-08-19T15:45:33;26.40;99.90
35565;DHT22;21668;44.784;10.336;2022-08-19T15:48:37;26.30;99.90
35565;DHT22;21668;44.784;10.336;2022-08-19T15:51:47;26.30;99.90
35565;DHT22;21668;44.784;10.336;2022-08-19T15:54:51;26.40;99.90
35565;DHT22;21668;44.784;10.336;2022-08-19T15:57:57;26.50;99.90
35565;DHT22;21668;44.784;10.336;2022-08-19T16:04:59;26.30;99.90
35565;DHT22;21668;44.784;10.336;2022-08-19T16:08:21;26.40;99.90
35565;DHT22;21668;44.784;10.336;2022-08-19T16:11:27;26.30;99.90
35565;DHT22;21668;44.784;10.336;2022-08-19T16:36:22;26.30;99.90
35565;DHT22;21668;44.784;10.336;2022-08-19T16:48:37;25.90;99.90
35565;DHT22;21668;44.784;10.336;2022-08-19T16:51:52;25.70;99.90
35565;DHT22;21668;44.784;10.336;2022-08-19T16:54:59;25.70;99.90
35565;DHT22;21668;44.784;10.336;2022-08-19T16:58:14;26.10;99.90
35565;DHT22;21668;44.784;10.336;2022-08-19T17:04:48;26.00;99.90
35565;DHT22;21668;44.784;10.336;2022-08-19T17:20:49;25.70;99.90
35565;DHT22;21668;44.784;10.336;2022-08-19T17:24:00;26.00;99.90
35565;DHT22;21668;44.784;10.336;2022-08-19T17:27:04;26.70;99.90
35565;DHT22;21668;44.784;10.336;2022-08-19T17:30:12;27.40;99.90
35565;DHT22;21668;44.784;10.336;2022-08-19T17:33:17;28.20;99.90
35565;DHT22;21668;44.784;10.336;2022-08-19T17:36:34;28.90;99.90
35565;DHT22;21668;44.784;10.336;2022-08-19T17:39:39;29.20;99.90
35565;DHT22;21668;44.784;10.336;2022-08-19T17:43:23;29.20;99.90
35565;DHT22;21668;44.784;10.336;2022-08-19T17:46:28;29.30;99.90
35565;DHT22;21668;44.784;10.336;2022-08-19T17:49:33;29.10;99.90
35565;DHT22;21668;44.784;10.336;2022-08-19T17:52:38;28.40;99.90
35565;DHT22;21668;44.784;10.336;2022-08-19T17:55:42;27.70;99.90
35565;DHT22;21668;44.784;10.336;2022-08-19T18:02:52;26.20;99.90
35565;DHT22;21668;44.784;10.336;2022-08-19T18:06:05;25.60;99.90
35565;DHT22;21668;44.784;10.336;2022-08-19T18:09:10;25.20;99.90
35565;DHT22;21668;44.784;10.336;2022-08-19T18:12:23;24.90;99.90
35565;DHT22;21668;44.784;10.336;2022-08-19T18:15:31;24.60;99.90
35565;DHT22;21668;44.784;10.336;2022-08-19T18:18:46;24.30;99.90
35565;DHT22;21668;44.784;10.336;2022-08-19T18:21:51;24.10;99.90
35565;DHT22;21668;44.784;10.336;2022-08-19T18:24:56;24.00;99.90
35565;DHT22;21668;44.784;10.336;2022-08-19T18:28:00;23.80;99.90
35565;DHT22;21668;44.784;10.336;2022-08-19T18:31:05;23.70;99.90
35565;DHT22;21668;44.784;10.336;2022-08-19T18:34:09;23.60;99.90
35565;DHT22;21668;44.784;10.336;2022-08-19T18:40:29;23.40;99.90
35565;DHT22;21668;44.784;10.336;2022-08-19T18:43:52;23.30;99.90
35565;DHT22;21668;44.784;10.336;2022-08-19T18:50:51;23.20;99.90
35565;DHT22;21668;44.784;10.336;2022-08-19T18:53:58;23.10;99.90
35565;DHT22;21668;44.784;10.336;2022-08-19T18:57:05;23.10;99.90
35565;DHT22;21668;44.784;10.336;2022-08-19T19:00:10;23.10;99.90
35565;DHT22;21668;44.784;10.336;2022-08-19T19:03:15;23.00;99.90
35565;DHT22;21668;44.784;10.336;2022-08-19T19:06:21;22.90;99.90
35565;DHT22;21668;44.784;10.336;2022-08-19T19:09:26;22.90;99.90
35565;DHT22;21668;44.784;10.336;2022-08-19T19:12:30;22.80;99.90
35565;DHT22;21668;44.784;10.336;2022-08-19T19:19:16;22.90;99.90
35565;DHT22;21668;44.784;10.336;2022-08-19T19:22:52;22.80;99.90
35565;DHT22;21668;44.784;10.336;2022-08-19T19:25:56;20.60;99.90
35565;DHT22;21668;44.784;10.336;2022-08-19T19:29:01;22.80;99.90
35565;DHT22;21668;44.784;10.336;2022-08-19T19:35:50;22.70;99.90
35565;DHT22;21668;44.784;10.336;2022-08-19T19:42:23;22.70;99.90
35565;DHT22;21668;44.784;10.336;2022-08-19T19:45:29;22.70;99.90
35565;DHT22;21668;44.784;10.336;2022-08-19T19:48:33;22.60;99.90
35565;DHT22;21668;44.784;10.336;2022-08-19T19:51:38;22.60;99.90
35565;DHT22;21668;44.784;10.336;2022-08-19T19:54:43;22.60;99.90
35565;DHT22;21668;44.784;10.336;2022-08-19T19:57:47;22.60;99.90
35565;DHT22;21668;44.784;10.336;2022-08-19T20:00:51;22.60;99.90
35565;DHT22;21668;44.784;10.336;2022-08-19T20:03:55;22.50;99.90
35565;DHT22;21668;44.784;10.336;2022-08-19T20:07:04;22.50;99.90
35565;DHT22;21668;44.784;10.336;2022-08-19T20:10:07;22.50;99.90
35565;DHT22;21668;44.784;10.336;2022-08-19T20:13:11;22.40;99.90
35565;DHT22;21668;44.784;10.336;2022-08-19T20:16:17;22.30;99.90
35565;DHT22;21668;44.784;10.336;2022-08-19T20:19:22;22.40;99.90
35565;DHT22;21668;44.784;10.336;2022-08-19T20:22:27;21.90;99.90
35565;DHT22;21668;44.784;10.336;2022-08-19T20:25:32;22.30;99.90
35565;DHT22;21668;44.784;10.336;2022-08-19T20:28:36;22.20;99.90
35565;DHT22;21668;44.784;10.336;2022-08-19T20:31:40;22.20;99.90
35565;DHT22;21668;44.784;10.336;2022-08-19T20:34:43;22.20;99.90
35565;DHT22;21668;44.784;10.336;2022-08-19T20:37:51;22.10;99.90
35565;DHT22;21668;44.784;10.336;2022-08-19T20:40:57;22.10;99.90
35565;DHT22;21668;44.784;10.336;2022-08-19T20:44:01;22.10;99.90
35565;DHT22;21668;44.784;10.336;2022-08-19T20:47:07;22.00;99.90
35565;DHT22;21668;44.784;10.336;2022-08-19T20:50:10;22.00;99.90
35565;DHT22;21668;44.784;10.336;2022-08-19T20:53:16;22.00;99.90
35565;DHT22;21668;44.784;10.336;2022-08-19T20:56:20;21.90;99.90
35565;DHT22;21668;44.784;10.336;2022-08-19T20:59:24;21.90;99.90
35565;DHT22;21668;44.784;10.336;2022-08-19T21:02:29;21.80;99.90
35565;DHT22;21668;44.784;10.336;2022-08-19T21:05:33;21.70;99.90
35565;DHT22;21668;44.784;10.336;2022-08-19T21:08:37;21.80;99.90
35565;DHT22;21668;44.784;10.336;2022-08-19T21:11:41;21.60;99.90
35565;DHT22;21668;44.784;10.336;2022-08-19T21:14:46;21.60;99.90
35565;DHT22;21668;44.784;10.336;2022-08-19T21:17:50;23.30;99.90
35565;DHT22;21668;44.784;10.336;2022-08-19T21:20:54;21.50;99.90
35565;DHT22;21668;44.784;10.336;2022-08-19T21:23:58;21.50;99.90
35565;DHT22;21668;44.784;10.336;2022-08-19T21:27:02;21.50;99.90
35565;DHT22;21668;44.784;10.336;2022-08-19T21:30:06;21.40;99.90
35565;DHT22;21668;44.784;10.336;2022-08-19T21:33:11;21.40;99.90
35565;DHT22;21668;44.784;10.336;2022-08-19T21:36:15;21.30;99.90
35565;DHT22;21668;44.784;10.336;2022-08-19T21:39:20;21.20;99.90
35565;DHT22;21668;44.784;10.336;2022-08-19T21:42:27;21.40;99.90
35565;DHT22;21668;44.784;10.336;2022-08-19T21:49:00;21.20;99.90
35565;DHT22;21668;44.784;10.336;2022-08-19T21:52:10;21.10;99.90
35565;DHT22;21668;44.784;10.336;2022-08-19T21:55:16;21.10;99.90
35565;DHT22;21668;44.784;10.336;2022-08-19T21:59:11;21.00;99.90
35565;DHT22;21668;44.784;10.336;2022-08-19T22:02:13;21.00;99.90
35565;DHT22;21668;44.784;10.336;2022-08-19T22:05:19;21.00;99.90
35565;DHT22;21668;44.784;10.336;2022-08-19T22:08:28;20.90;99.90
35565;DHT22;21668;44.784;10.336;2022-08-19T22:11:35;20.90;99.90
35565;DHT22;21668;44.784;10.336;2022-08-19T22:14:40;20.90;99.90
35565;DHT22;21668;44.784;10.336;2022-08-19T22:17:47;20.90;99.90
35565;DHT22;21668;44.784;10.336;2022-08-19T22:20:56;20.80;99.90
35565;DHT22;21668;44.784;10.336;2022-08-19T22:24:10;20.80;99.90
35565;DHT22;21668;44.784;10.336;2022-08-19T22:27:13;20.80;99.90
35565;DHT22;21668;44.784;10.336;2022-08-19T22:30:24;20.80;99.90
35565;DHT22;21668;44.784;10.336;2022-08-19T22:33:28;20.80;99.90
35565;DHT22;21668;44.784;10.336;2022-08-19T22:36:32;20.80;99.90
35565;DHT22;21668;44.784;10.336;2022-08-19T22:39:36;20.70;99.90
35565;DHT22;21668;44.784;10.336;2022-08-19T22:42:40;20.70;99.90
35565;DHT22;21668;44.784;10.336;2022-08-19T22:45:48;20.70;99.90
35565;DHT22;21668;44.784;10.336;2022-08-19T22:48:51;20.60;99.90
35565;DHT22;21668;44.784;10.336;2022-08-19T22:51:56;20.60;99.90
35565;DHT22;21668;44.784;10.336;2022-08-19T22:55:19;20.60;99.90
35565;DHT22;21668;44.784;10.336;2022-08-19T22:58:23;20.60;99.90
35565;DHT22;21668;44.784;10.336;2022-08-19T23:01:27;20.60;99.90
35565;DHT22;21668;44.784;10.336;2022-08-19T23:04:31;20.60;99.90
35565;DHT22;21668;44.784;10.336;2022-08-19T23:07:35;20.60;99.90
35565;DHT22;21668;44.784;10.336;2022-08-19T23:10:39;20.50;99.90
35565;DHT22;21668;44.784;10.336;2022-08-19T23:13:43;20.50;99.90
35565;DHT22;21668;44.784;10.336;2022-08-19T23:16:47;20.50;99.90
35565;DHT22;21668;44.784;10.336;2022-08-19T23:19:51;20.50;99.90
35565;DHT22;21668;44.784;10.336;2022-08-19T23:22:56;20.30;99.90
35565;DHT22;21668;44.784;10.336;2022-08-19T23:26:00;20.50;99.90
35565;DHT22;21668;44.784;10.336;2022-08-19T23:29:04;20.40;99.90
35565;DHT22;21668;44.784;10.336;2022-08-19T23:32:32;20.40;99.90
35565;DHT22;21668;44.784;10.336;2022-08-19T23:35:37;20.40;99.90
35565;DHT22;21668;44.784;10.336;2022-08-19T23:39:19;20.40;99.90
35565;DHT22;21668;44.784;10.336;2022-08-19T23:42:23;20.30;99.90
35565;DHT22;21668;44.784;10.336;2022-08-19T23:45:28;20.30;99.90
35565;DHT22;21668;44.784;10.336;2022-08-19T23:48:35;20.30;99.90
35565;DHT22;21668;44.784;10.336;2022-08-19T23:51:39;20.30;99.90
35565;DHT22;21668;44.784;10.336;2022-08-19T23:54:43;20.20;99.90
35565;DHT22;21668;44.784;10.336;2022-08-19T23:57:48;20.20;99.90
